createdAt,value
2022-09-22T00:00:43.642Z,15.30
2022-09-22T00:01:33.707Z,16.54
2022-09-22T00:02:13.640Z,16.08
2022-09-22T00:02:53.658Z,18.29
2022-09-22T00:03:27.783Z,17.05
2022-09-22T00:04:23.642Z,22.59
2022-09-22T00:04:57.647Z,31.85
2022-09-22T00:05:44.619Z,32.34
2022-09-22T00:06:24.661Z,23.81
2022-09-22T00:07:11.605Z,22.50
2022-09-22T00:07:45.827Z,23.16
2022-09-22T00:08:26.726Z,20.16
2022-09-22T00:09:07.639Z,16.09
2022-09-22T00:09:47.582Z,19.31
2022-09-22T00:10:28.662Z,25.25
2022-09-22T00:11:20.754Z,28.64
2022-09-22T00:12:02.705Z,31.25
2022-09-22T00:12:43.565Z,30.81
2022-09-22T00:13:23.625Z,30.20
2022-09-22T00:14:28.611Z,29.04
2022-09-22T00:15:09.639Z,25.51
2022-09-22T00:15:52.594Z,23.85
2022-09-22T00:16:39.169Z,20.44
2022-09-22T00:17:19.583Z,19.38
2022-09-22T00:17:59.709Z,17.54
2022-09-22T00:18:40.577Z,16.71
2022-09-22T00:19:36.585Z,16.42
2022-09-22T00:20:30.575Z,16.11
2022-09-22T00:21:26.599Z,15.46
2022-09-22T00:22:20.762Z,14.77
2022-09-22T00:23:14.637Z,14.06
2022-09-22T00:24:08.598Z,12.24
2022-09-22T00:24:55.780Z,11.29
2022-09-22T00:25:29.616Z,11.46
2022-09-22T00:26:18.560Z,11.60
2022-09-22T00:27:00.635Z,11.75
2022-09-22T00:27:40.600Z,13.29
2022-09-22T00:28:22.310Z,13.10
2022-09-22T00:29:02.583Z,12.30
2022-09-22T00:29:43.376Z,14.43
2022-09-22T00:30:23.635Z,11.89
2022-09-22T00:31:03.607Z,11.16
2022-09-22T00:31:45.666Z,11.64
2022-09-22T00:32:25.595Z,11.34
2022-09-22T00:33:05.571Z,10.98
2022-09-22T00:33:46.647Z,11.45
2022-09-22T00:34:29.539Z,11.21
2022-09-22T00:35:09.647Z,10.51
2022-09-22T00:35:49.602Z,10.86
2022-09-22T00:36:32.692Z,10.23
2022-09-22T00:37:12.560Z,10.74
2022-09-22T00:37:52.642Z,12.02
2022-09-22T00:38:32.555Z,11.21
2022-09-22T00:39:13.590Z,10.41
2022-09-22T00:39:53.583Z,11.56
2022-09-22T00:40:33.609Z,13.30
2022-09-22T00:41:17.568Z,14.64
2022-09-22T00:41:58.662Z,10.16
2022-09-22T00:42:39.571Z,10.24
2022-09-22T00:43:22.592Z,10.84
2022-09-22T00:44:42.556Z,10.49
2022-09-22T00:45:22.967Z,10.18
2022-09-22T00:46:21.575Z,10.91
2022-09-22T00:47:31.576Z,9.99
2022-09-22T00:48:11.627Z,8.95
2022-09-22T00:48:58.786Z,10.94
2022-09-22T00:49:44.571Z,10.73
2022-09-22T00:50:27.602Z,11.00
2022-09-22T00:51:09.643Z,10.90
2022-09-22T00:51:51.663Z,10.40
2022-09-22T00:52:48.684Z,11.19
2022-09-22T00:53:23.379Z,11.30
2022-09-22T00:54:04.583Z,11.48
2022-09-22T00:54:38.650Z,12.23
2022-09-22T00:55:19.251Z,13.61
2022-09-22T00:56:11.809Z,13.14
2022-09-22T00:57:04.656Z,12.25
2022-09-22T00:57:39.533Z,11.84
2022-09-22T00:58:30.613Z,11.27
2022-09-22T00:59:08.326Z,10.41
2022-09-22T00:59:57.625Z,10.93
2022-09-22T01:00:31.192Z,10.52
2022-09-22T01:01:18.736Z,10.64
2022-09-22T01:01:52.656Z,10.13
2022-09-22T01:02:32.636Z,10.65
2022-09-22T01:03:07.729Z,10.56
2022-09-22T01:03:41.594Z,11.73
2022-09-22T01:04:23.598Z,11.34
2022-09-22T01:04:58.689Z,11.60
2022-09-22T01:05:33.858Z,10.79
2022-09-22T01:06:16.609Z,10.54
2022-09-22T01:06:57.663Z,10.27
2022-09-22T01:07:38.645Z,10.43
2022-09-22T01:08:20.654Z,11.55
2022-09-22T01:09:01.625Z,12.36
2022-09-22T01:09:41.656Z,12.77
2022-09-22T01:10:21.583Z,10.21
2022-09-22T01:11:01.641Z,11.11
2022-09-22T01:11:44.605Z,11.46
2022-09-22T01:12:24.858Z,13.06
2022-09-22T01:13:42.801Z,12.71
2022-09-22T01:14:46.558Z,11.86
2022-09-22T01:15:45.674Z,10.21
2022-09-22T01:16:45.688Z,9.39
2022-09-22T01:17:39.681Z,8.99
2022-09-22T01:18:31.667Z,8.96
2022-09-22T01:19:44.692Z,8.55
2022-09-22T01:20:45.630Z,8.25
2022-09-22T01:22:12.621Z,9.51
2022-09-22T01:23:05.670Z,9.71
2022-09-22T01:24:12.582Z,9.36
2022-09-22T01:25:20.581Z,9.82
2022-09-22T01:26:32.856Z,10.29
2022-09-22T01:27:31.618Z,9.98
2022-09-22T01:28:29.382Z,9.16
2022-09-22T01:29:53.622Z,10.06
2022-09-22T01:30:39.585Z,10.52
2022-09-22T01:31:40.658Z,10.79
2022-09-22T01:32:47.557Z,10.54
2022-09-22T01:33:49.618Z,10.32
2022-09-22T01:34:41.626Z,10.45
2022-09-22T01:35:48.624Z,10.36
2022-09-22T01:37:16.581Z,10.09
2022-09-22T01:38:18.549Z,10.18
2022-09-22T01:39:41.556Z,10.32
2022-09-22T01:40:53.650Z,10.45
2022-09-22T01:42:07.545Z,11.66
2022-09-22T01:43:07.569Z,10.76
2022-09-22T01:44:14.537Z,10.19
2022-09-22T01:45:13.573Z,9.84
2022-09-22T01:46:07.714Z,10.54
2022-09-22T01:47:11.573Z,11.46
2022-09-22T01:48:12.566Z,11.65
2022-09-22T01:49:07.557Z,9.75
2022-09-22T01:50:05.584Z,9.44
2022-09-22T01:51:07.598Z,10.56
2022-09-22T01:52:13.626Z,11.41
2022-09-22T01:53:09.668Z,10.64
2022-09-22T01:53:55.826Z,10.11
2022-09-22T01:55:02.552Z,12.55
2022-09-22T01:55:45.938Z,10.51
2022-09-22T01:56:27.604Z,9.55
2022-09-22T01:57:15.599Z,10.77
2022-09-22T01:58:17.549Z,9.64
2022-09-22T01:59:04.617Z,9.14
2022-09-22T01:59:46.547Z,10.86
2022-09-22T02:00:27.611Z,11.04
2022-09-22T02:01:15.015Z,11.21
2022-09-22T02:02:07.659Z,10.61
2022-09-22T02:03:05.225Z,10.56
2022-09-22T02:03:49.613Z,10.44
2022-09-22T02:04:36.548Z,10.46
2022-09-22T02:05:13.797Z,10.38
2022-09-22T02:05:55.350Z,10.52
2022-09-22T02:06:38.561Z,10.79
2022-09-22T02:07:23.587Z,10.19
2022-09-22T02:07:59.874Z,11.26
2022-09-22T02:08:55.543Z,11.14
2022-09-22T02:09:31.191Z,10.20
2022-09-22T02:10:25.572Z,9.95
2022-09-22T02:11:04.302Z,11.85
2022-09-22T02:11:52.526Z,12.60
2022-09-22T02:12:32.555Z,11.30
2022-09-22T02:13:12.619Z,11.24
2022-09-22T02:13:53.545Z,11.81
2022-09-22T02:14:33.746Z,11.74
2022-09-22T02:15:37.625Z,10.81
2022-09-22T02:16:19.894Z,11.13
2022-09-22T02:17:00.548Z,10.99
2022-09-22T02:17:48.697Z,12.93
2022-09-22T02:18:26.046Z,12.74
2022-09-22T02:19:19.516Z,11.15
2022-09-22T02:19:53.101Z,11.56
2022-09-22T02:20:40.559Z,10.99
2022-09-22T02:21:15.139Z,11.11
2022-09-22T02:22:03.554Z,11.30
2022-09-22T02:22:37.111Z,9.98
2022-09-22T02:23:17.543Z,10.20
2022-09-22T02:23:52.634Z,9.75
2022-09-22T02:24:45.505Z,9.40
2022-09-22T02:25:26.526Z,9.96
2022-09-22T02:26:04.256Z,10.43
2022-09-22T02:26:38.123Z,11.23
2022-09-22T02:27:27.546Z,9.90
2022-09-22T02:28:02.615Z,9.60
2022-09-22T02:28:45.563Z,10.48
2022-09-22T02:29:26.611Z,9.57
2022-09-22T02:30:12.493Z,9.64
2022-09-22T02:31:17.934Z,9.82
2022-09-22T02:32:02.630Z,11.41
2022-09-22T02:32:36.600Z,10.95
2022-09-22T02:33:25.523Z,10.01
2022-09-22T02:34:06.580Z,10.11
2022-09-22T02:35:00.501Z,10.75
2022-09-22T02:35:56.508Z,10.88
2022-09-22T02:37:09.603Z,11.63
2022-09-22T02:38:13.502Z,13.81
2022-09-22T02:39:26.550Z,11.48
2022-09-22T02:40:32.579Z,11.91
2022-09-22T02:41:32.531Z,11.39
2022-09-22T02:42:34.510Z,10.69
2022-09-22T02:43:38.530Z,11.25
2022-09-22T02:44:38.514Z,11.29
2022-09-22T02:45:56.542Z,12.46
2022-09-22T02:46:56.496Z,12.21
2022-09-22T02:47:57.533Z,11.38
2022-09-22T02:48:55.480Z,11.49
2022-09-22T02:49:49.523Z,11.04
2022-09-22T02:50:44.470Z,11.46
2022-09-22T02:51:38.497Z,12.26
2022-09-22T02:52:33.517Z,12.00
2022-09-22T02:53:29.493Z,11.24
2022-09-22T02:54:23.502Z,12.19
2022-09-22T02:55:12.541Z,12.48
2022-09-22T02:55:47.536Z,12.14
2022-09-22T02:56:34.480Z,11.39
2022-09-22T02:57:08.548Z,13.49
2022-09-22T02:57:55.499Z,13.39
2022-09-22T02:58:29.572Z,14.26
2022-09-22T02:59:16.512Z,11.73
2022-09-22T02:59:50.614Z,11.65
2022-09-22T03:00:38.766Z,11.76
2022-09-22T03:01:12.615Z,11.04
2022-09-22T03:01:59.529Z,11.23
2022-09-22T03:02:33.579Z,11.77
2022-09-22T03:03:20.465Z,11.79
2022-09-22T03:03:54.556Z,13.99
2022-09-22T03:04:41.501Z,13.94
2022-09-22T03:05:15.669Z,12.95
2022-09-22T03:06:02.533Z,12.76
2022-09-22T03:06:38.450Z,12.55
2022-09-22T03:07:25.536Z,14.00
2022-09-22T03:07:59.772Z,14.81
2022-09-22T03:08:46.459Z,15.70
2022-09-22T03:09:20.536Z,15.57
2022-09-22T03:10:07.518Z,17.51
2022-09-22T03:10:41.506Z,18.13
2022-09-22T03:11:21.479Z,16.83
2022-09-22T03:12:01.561Z,16.21
2022-09-22T03:12:56.718Z,14.99
2022-09-22T03:13:41.588Z,12.55
2022-09-22T03:14:21.470Z,11.73
2022-09-22T03:15:01.602Z,11.99
2022-09-22T03:15:41.536Z,13.04
2022-09-22T03:16:28.525Z,11.44
2022-09-22T03:17:22.482Z,12.00
2022-09-22T03:18:17.517Z,13.21
2022-09-22T03:19:11.478Z,10.71
2022-09-22T03:20:05.483Z,11.45
2022-09-22T03:20:59.609Z,11.91
2022-09-22T03:21:46.703Z,11.94
2022-09-22T03:22:20.563Z,11.36
2022-09-22T03:23:07.636Z,12.15
2022-09-22T03:23:41.622Z,13.43
2022-09-22T03:24:28.503Z,14.02
2022-09-22T03:25:02.599Z,11.52
2022-09-22T03:25:49.470Z,11.07
2022-09-22T03:26:23.550Z,12.80
2022-09-22T03:27:10.483Z,11.63
2022-09-22T03:27:45.541Z,11.36
2022-09-22T03:28:32.445Z,11.81
2022-09-22T03:29:06.540Z,11.16
2022-09-22T03:29:53.447Z,10.98
2022-09-22T03:30:27.523Z,12.06
2022-09-22T03:31:14.531Z,14.73
2022-09-22T03:31:55.585Z,12.46
2022-09-22T03:32:35.503Z,13.21
2022-09-22T03:33:15.600Z,11.96
2022-09-22T03:33:55.450Z,11.65
2022-09-22T03:34:35.531Z,12.55
2022-09-22T03:35:16.562Z,12.04
2022-09-22T03:35:56.518Z,13.20
2022-09-22T03:36:36.447Z,14.96
2022-09-22T03:37:16.502Z,11.80
2022-09-22T03:37:56.494Z,10.54
2022-09-22T03:38:36.523Z,11.91
2022-09-22T03:39:16.466Z,17.30
2022-09-22T03:39:56.546Z,18.49
2022-09-22T03:40:36.462Z,15.27
2022-09-22T03:41:17.519Z,13.65
2022-09-22T03:41:57.445Z,11.10
2022-09-22T03:42:37.510Z,11.30
2022-09-22T03:43:17.483Z,11.70
2022-09-22T03:43:58.705Z,11.13
2022-09-22T03:44:39.429Z,10.27
2022-09-22T03:45:19.522Z,10.56
2022-09-22T03:46:06.511Z,10.91
2022-09-22T03:46:46.781Z,10.31
2022-09-22T03:47:27.467Z,10.23
2022-09-22T03:48:07.502Z,8.91
2022-09-22T03:48:47.511Z,9.75
2022-09-22T03:49:27.513Z,10.18
2022-09-22T03:50:07.456Z,8.74
2022-09-22T03:50:47.515Z,8.88
2022-09-22T03:51:27.443Z,9.18
2022-09-22T03:52:08.547Z,9.26
2022-09-22T03:52:50.429Z,8.01
2022-09-22T03:53:31.535Z,8.65
2022-09-22T03:54:11.461Z,9.94
2022-09-22T03:54:52.262Z,10.27
2022-09-22T03:55:32.433Z,9.57
2022-09-22T03:56:15.514Z,8.13
2022-09-22T03:56:55.398Z,8.18
2022-09-22T03:57:36.540Z,9.13
2022-09-22T03:58:16.428Z,10.76
2022-09-22T03:58:56.550Z,12.90
2022-09-22T03:59:36.498Z,13.02
2022-09-22T04:00:17.518Z,12.23
2022-09-22T04:00:57.619Z,12.04
2022-09-22T04:01:38.120Z,11.10
2022-09-22T04:02:18.500Z,11.19
2022-09-22T04:02:58.792Z,11.77
2022-09-22T04:03:40.422Z,11.61
2022-09-22T04:04:20.514Z,12.66
2022-09-22T04:05:00.444Z,12.18
2022-09-22T04:05:40.485Z,11.55
2022-09-22T04:06:20.417Z,12.25
2022-09-22T04:07:06.889Z,12.90
2022-09-22T04:07:47.410Z,13.45
2022-09-22T04:08:27.638Z,12.19
2022-09-22T04:09:08.384Z,10.30
2022-09-22T04:09:48.484Z,10.21
2022-09-22T04:10:29.493Z,12.09
2022-09-22T04:11:10.538Z,11.71
2022-09-22T04:11:51.425Z,10.41
2022-09-22T04:12:31.550Z,11.56
2022-09-22T04:13:11.405Z,10.40
2022-09-22T04:13:51.563Z,9.06
2022-09-22T04:14:31.421Z,9.95
2022-09-22T04:15:12.547Z,10.04
2022-09-22T04:15:53.460Z,11.05
2022-09-22T04:16:34.541Z,11.69
2022-09-22T04:17:14.386Z,9.98
2022-09-22T04:17:58.374Z,8.44
2022-09-22T04:18:38.401Z,8.66
2022-09-22T04:19:19.723Z,10.65
2022-09-22T04:20:01.396Z,10.18
2022-09-22T04:20:43.688Z,9.80
2022-09-22T04:21:24.480Z,8.79
2022-09-22T04:22:04.495Z,8.89
2022-09-22T04:22:45.390Z,9.25
2022-09-22T04:23:25.509Z,9.73
2022-09-22T04:24:05.487Z,10.77
2022-09-22T04:24:45.622Z,9.49
2022-09-22T04:25:25.611Z,11.00
2022-09-22T04:26:05.484Z,9.89
2022-09-22T04:27:02.211Z,8.71
2022-09-22T04:27:46.433Z,10.45
2022-09-22T04:28:26.360Z,8.71
2022-09-22T04:29:06.505Z,8.75
2022-09-22T04:29:46.402Z,9.57
2022-09-22T04:30:26.568Z,9.11
2022-09-22T04:31:06.456Z,10.49
2022-09-22T04:31:53.423Z,9.96
2022-09-22T04:32:27.991Z,10.43
2022-09-22T04:33:15.368Z,9.95
2022-09-22T04:34:09.386Z,8.98
2022-09-22T04:35:03.376Z,8.59
2022-09-22T04:35:57.376Z,10.32
2022-09-22T04:36:51.394Z,8.61
2022-09-22T04:37:31.365Z,9.16
2022-09-22T04:38:11.425Z,10.45
2022-09-22T04:38:51.386Z,8.81
2022-09-22T04:39:31.446Z,9.43
2022-09-22T04:40:12.575Z,9.29
2022-09-22T04:40:52.492Z,9.56
2022-09-22T04:41:32.392Z,8.77
2022-09-22T04:42:12.485Z,9.14
2022-09-22T04:42:46.897Z,9.11
2022-09-22T04:43:34.366Z,8.16
2022-09-22T04:44:08.543Z,10.46
2022-09-22T04:44:55.377Z,10.41
2022-09-22T04:45:29.492Z,11.00
2022-09-22T04:46:16.488Z,9.81
2022-09-22T04:46:50.490Z,9.59
2022-09-22T04:47:37.486Z,9.51
2022-09-22T04:48:11.476Z,12.07
2022-09-22T04:48:58.340Z,10.54
2022-09-22T04:49:32.492Z,9.14
2022-09-22T04:50:20.431Z,10.26
2022-09-22T04:50:54.496Z,9.07
2022-09-22T04:51:41.376Z,8.99
2022-09-22T04:52:15.538Z,8.71
2022-09-22T04:53:03.406Z,8.66
2022-09-22T04:53:37.634Z,8.94
2022-09-22T04:54:24.361Z,9.38
2022-09-22T04:54:58.424Z,9.07
2022-09-22T04:55:45.396Z,9.77
2022-09-22T04:56:19.629Z,10.11
2022-09-22T04:57:06.367Z,10.21
2022-09-22T04:57:40.462Z,9.88
2022-09-22T04:58:27.401Z,8.34
2022-09-22T04:59:02.161Z,7.60
2022-09-22T04:59:49.337Z,7.38
2022-09-22T05:00:24.505Z,8.26
2022-09-22T05:01:12.398Z,8.88
2022-09-22T05:01:46.505Z,9.38
2022-09-22T05:02:33.393Z,8.23
2022-09-22T05:03:07.494Z,9.11
2022-09-22T05:03:47.402Z,8.82
2022-09-22T05:04:28.664Z,7.26
2022-09-22T05:05:09.384Z,6.16
2022-09-22T05:05:49.531Z,6.40
2022-09-22T05:06:29.361Z,8.20
2022-09-22T05:07:09.406Z,8.70
2022-09-22T05:07:54.448Z,7.72
2022-09-22T05:08:34.394Z,7.59
2022-09-22T05:09:15.369Z,9.75
2022-09-22T05:09:55.466Z,10.70
2022-09-22T05:10:38.381Z,8.66
2022-09-22T05:11:23.697Z,9.19
2022-09-22T05:12:06.336Z,9.19
2022-09-22T05:12:49.471Z,9.09
2022-09-22T05:13:29.370Z,9.44
2022-09-22T05:14:09.480Z,8.46
2022-09-22T05:14:49.375Z,10.18
2022-09-22T05:15:32.693Z,9.05
2022-09-22T05:16:14.441Z,8.93
2022-09-22T05:16:54.463Z,7.74
2022-09-22T05:17:35.410Z,7.82
2022-09-22T05:18:16.414Z,8.84
2022-09-22T05:18:59.309Z,8.00
2022-09-22T05:19:39.458Z,7.21
2022-09-22T05:20:20.406Z,6.97
2022-09-22T05:21:00.394Z,7.61
2022-09-22T05:21:41.378Z,8.27
2022-09-22T05:22:22.846Z,8.01
2022-09-22T05:23:03.333Z,8.00
2022-09-22T05:23:43.373Z,7.85
2022-09-22T05:24:23.321Z,7.20
2022-09-22T05:25:03.394Z,6.74
2022-09-22T05:25:43.368Z,7.64
2022-09-22T05:26:23.389Z,8.56
2022-09-22T05:27:04.320Z,7.81
2022-09-22T05:27:54.464Z,6.91
2022-09-22T05:28:34.329Z,7.32
2022-09-22T05:29:14.458Z,5.89
2022-09-22T05:29:54.355Z,6.54
2022-09-22T05:30:34.423Z,5.84
2022-09-22T05:31:15.433Z,6.75
2022-09-22T05:31:55.435Z,7.68
2022-09-22T05:32:35.336Z,7.69
2022-09-22T05:33:15.547Z,9.27
2022-09-22T05:33:55.307Z,8.21
2022-09-22T05:34:35.366Z,7.79
2022-09-22T05:35:16.304Z,6.96
2022-09-22T05:35:56.466Z,6.40
2022-09-22T05:36:36.499Z,5.63
2022-09-22T05:37:16.422Z,5.93
2022-09-22T05:37:57.328Z,7.00
2022-09-22T05:38:37.431Z,6.76
2022-09-22T05:39:17.356Z,7.99
2022-09-22T05:39:57.420Z,7.04
2022-09-22T05:40:37.418Z,7.04
2022-09-22T05:41:17.543Z,7.57
2022-09-22T05:41:57.366Z,6.76
2022-09-22T05:42:37.451Z,6.85
2022-09-22T05:43:17.342Z,7.14
2022-09-22T05:43:57.387Z,6.41
2022-09-22T05:44:37.307Z,7.61
2022-09-22T05:45:18.263Z,8.55
2022-09-22T05:45:58.371Z,7.59
2022-09-22T05:46:38.481Z,8.44
2022-09-22T05:47:18.330Z,7.80
2022-09-22T05:47:58.395Z,7.47
2022-09-22T05:48:41.310Z,6.82
2022-09-22T05:49:21.400Z,8.07
2022-09-22T05:50:02.311Z,9.26
2022-09-22T05:50:42.436Z,8.63
2022-09-22T05:51:22.364Z,6.78
2022-09-22T05:52:02.580Z,6.74
2022-09-22T05:52:42.372Z,7.06
2022-09-22T05:53:23.514Z,7.69
2022-09-22T05:54:03.315Z,7.49
2022-09-22T05:54:45.658Z,6.55
2022-09-22T05:55:25.374Z,6.16
2022-09-22T05:56:06.423Z,6.61
2022-09-22T05:56:46.308Z,7.66
2022-09-22T05:57:27.555Z,6.28
2022-09-22T05:58:08.350Z,4.84
2022-09-22T05:58:48.433Z,5.43
2022-09-22T05:59:28.346Z,6.21
2022-09-22T06:00:08.393Z,6.38
2022-09-22T06:00:48.388Z,7.00
2022-09-22T06:01:30.858Z,6.35
2022-09-22T06:02:25.626Z,6.54
2022-09-22T06:03:06.439Z,5.91
2022-09-22T06:03:47.395Z,5.99
2022-09-22T06:04:27.390Z,6.01
2022-09-22T06:05:07.274Z,6.36
2022-09-22T06:05:47.436Z,6.84
2022-09-22T06:06:28.278Z,5.38
2022-09-22T06:07:08.474Z,5.56
2022-09-22T06:07:49.326Z,7.01
2022-09-22T06:08:32.435Z,6.56
2022-09-22T06:09:12.306Z,5.74
2022-09-22T06:09:52.394Z,6.00
2022-09-22T06:10:33.304Z,5.70
2022-09-22T06:11:13.335Z,7.15
2022-09-22T06:11:53.285Z,7.44
2022-09-22T06:12:33.458Z,7.79
2022-09-22T06:14:17.645Z,7.00
2022-09-22T06:14:51.444Z,5.46
2022-09-22T06:15:40.276Z,6.29
2022-09-22T06:16:14.556Z,7.16
2022-09-22T06:17:21.016Z,6.69
2022-09-22T06:18:02.420Z,8.71
2022-09-22T06:18:36.442Z,7.14
2022-09-22T06:19:09.790Z,4.71
2022-09-22T06:19:54.249Z,5.28
2022-09-22T06:20:28.429Z,6.03
2022-09-22T06:21:02.802Z,6.90
2022-09-22T06:21:43.285Z,8.46
2022-09-22T06:22:17.338Z,7.18
2022-09-22T06:22:51.007Z,6.64
2022-09-22T06:23:34.307Z,6.78
2022-09-22T06:24:08.364Z,7.75
2022-09-22T06:24:41.954Z,7.28
2022-09-22T06:25:22.294Z,7.56
2022-09-22T06:25:56.370Z,7.40
2022-09-22T06:26:30.969Z,8.01
2022-09-22T06:27:11.277Z,8.55
2022-09-22T06:27:45.764Z,8.44
2022-09-22T06:28:19.824Z,8.45
2022-09-22T06:29:00.296Z,7.61
2022-09-22T06:29:34.338Z,8.11
2022-09-22T06:30:11.310Z,8.13
2022-09-22T06:30:51.323Z,7.61
2022-09-22T06:31:25.422Z,8.44
2022-09-22T06:31:59.854Z,8.55
2022-09-22T06:32:46.246Z,6.86
2022-09-22T06:33:23.869Z,8.38
2022-09-22T06:33:57.796Z,6.50
2022-09-22T06:34:40.390Z,5.71
2022-09-22T06:35:14.522Z,7.65
2022-09-22T06:35:47.765Z,8.40
2022-09-22T06:37:32.802Z,9.14
2022-09-22T06:38:08.063Z,7.66
2022-09-22T06:38:48.233Z,6.35
2022-09-22T06:39:22.549Z,6.75
2022-09-22T06:40:03.382Z,6.99
2022-09-22T06:40:43.445Z,5.95
2022-09-22T06:41:23.282Z,6.68
2022-09-22T06:42:03.376Z,5.97
2022-09-22T06:42:44.311Z,5.93
2022-09-22T06:43:26.476Z,7.06
2022-09-22T06:44:06.248Z,6.95
2022-09-22T06:44:46.545Z,7.36
2022-09-22T06:45:27.379Z,8.21
2022-09-22T06:46:10.181Z,7.60
2022-09-22T06:46:50.249Z,6.57
2022-09-22T06:47:31.698Z,7.13
2022-09-22T06:48:12.261Z,7.50
2022-09-22T06:48:59.334Z,9.09
2022-09-22T06:49:39.285Z,7.69
2022-09-22T06:50:19.345Z,7.26
2022-09-22T06:51:00.273Z,6.64
2022-09-22T06:51:43.320Z,7.16
2022-09-22T06:52:23.229Z,7.31
2022-09-22T06:53:11.811Z,7.74
2022-09-22T06:53:54.240Z,6.45
2022-09-22T06:54:34.338Z,5.59
2022-09-22T06:55:26.378Z,4.89
2022-09-22T06:56:16.355Z,5.72
2022-09-22T06:56:49.757Z,5.80
2022-09-22T06:57:39.228Z,5.16
2022-09-22T06:58:14.790Z,4.89
2022-09-22T06:59:18.255Z,4.84
2022-09-22T06:59:51.887Z,6.01
2022-09-22T07:00:40.333Z,7.61
2022-09-22T07:01:14.473Z,7.04
2022-09-22T07:01:54.386Z,6.91
2022-09-22T07:02:29.313Z,5.99
2022-09-22T07:03:22.994Z,5.45
2022-09-22T07:04:04.268Z,6.89
2022-09-22T07:04:42.314Z,7.43
2022-09-22T07:05:18.695Z,7.99
2022-09-22T07:06:05.276Z,6.50
2022-09-22T07:06:40.741Z,6.45
2022-09-22T07:07:21.383Z,6.69
2022-09-22T07:08:01.354Z,6.78
2022-09-22T07:08:42.290Z,5.94
2022-09-22T07:09:23.527Z,6.93
2022-09-22T07:10:05.667Z,6.03
2022-09-22T07:10:45.586Z,6.04
2022-09-22T07:11:30.242Z,6.69
2022-09-22T07:12:10.398Z,6.68
2022-09-22T07:12:51.276Z,7.26
2022-09-22T07:13:33.582Z,7.21
2022-09-22T07:14:15.242Z,6.09
2022-09-22T07:14:58.055Z,8.11
2022-09-22T07:15:42.294Z,9.44
2022-09-22T07:16:25.461Z,7.13
2022-09-22T07:17:06.233Z,8.15
2022-09-22T07:18:00.838Z,7.50
2022-09-22T07:18:42.361Z,7.70
2022-09-22T07:19:22.685Z,7.29
2022-09-22T07:20:06.280Z,6.51
2022-09-22T07:20:46.334Z,6.30
2022-09-22T07:21:31.326Z,6.50
2022-09-22T07:22:12.910Z,5.95
2022-09-22T07:22:53.283Z,7.36
2022-09-22T07:23:34.782Z,6.66
2022-09-22T07:24:15.295Z,6.31
2022-09-22T07:25:51.640Z,7.39
2022-09-22T07:26:35.284Z,5.84
2022-09-22T07:27:26.227Z,4.61
2022-09-22T07:28:11.240Z,4.99
2022-09-22T07:29:00.397Z,4.61
2022-09-22T07:29:40.369Z,4.41
2022-09-22T07:30:22.537Z,4.65
2022-09-22T07:31:12.356Z,4.43
2022-09-22T07:31:53.421Z,4.97
2022-09-22T07:32:38.462Z,4.96
2022-09-22T07:33:19.829Z,4.69
2022-09-22T07:34:05.452Z,4.50
2022-09-22T07:34:52.459Z,4.89
2022-09-22T07:35:28.833Z,5.14
2022-09-22T07:36:27.290Z,5.25
2022-09-22T07:37:08.600Z,3.90
2022-09-22T07:37:57.191Z,4.45
2022-09-22T07:38:36.361Z,4.51
2022-09-22T07:39:32.167Z,3.44
2022-09-22T07:40:16.440Z,3.54
2022-09-22T07:41:24.873Z,4.68
2022-09-22T07:42:12.251Z,6.10
2022-09-22T07:43:21.205Z,6.56
2022-09-22T07:44:33.195Z,6.09
2022-09-22T07:46:33.532Z,5.31
2022-09-22T07:48:00.279Z,6.06
2022-09-22T07:48:55.263Z,6.94
2022-09-22T07:49:49.272Z,6.91
2022-09-22T07:52:02.330Z,8.52
2022-09-22T07:52:46.343Z,7.45
2022-09-22T07:53:33.211Z,6.90
2022-09-22T07:54:07.463Z,6.24
2022-09-22T07:55:09.877Z,5.60
2022-09-22T07:55:52.204Z,5.22
2022-09-22T07:56:31.039Z,5.50
2022-09-22T07:57:13.366Z,5.24
2022-09-22T07:58:00.310Z,4.09
2022-09-22T07:58:40.189Z,3.56
2022-09-22T07:59:22.274Z,3.95
2022-09-22T08:00:04.211Z,4.89
2022-09-22T08:00:44.389Z,5.51
2022-09-22T08:01:27.242Z,4.15
2022-09-22T08:02:08.336Z,4.43
2022-09-22T08:02:48.253Z,4.16
2022-09-22T08:03:28.319Z,3.81
2022-09-22T08:04:08.177Z,4.16
2022-09-22T08:04:48.264Z,4.45
2022-09-22T08:05:29.238Z,5.36
2022-09-22T08:06:12.023Z,5.24
2022-09-22T08:06:54.156Z,4.69
2022-09-22T08:07:37.340Z,4.88
2022-09-22T08:08:19.195Z,4.14
2022-09-22T08:09:03.989Z,4.05
2022-09-22T08:09:44.178Z,3.97
2022-09-22T08:10:26.395Z,4.05
2022-09-22T08:11:19.336Z,4.07
2022-09-22T08:12:00.273Z,3.60
2022-09-22T08:12:40.189Z,4.85
2022-09-22T08:13:27.189Z,5.19
2022-09-22T08:14:25.198Z,4.39
2022-09-22T08:15:24.605Z,3.66
2022-09-22T08:16:21.297Z,3.63
2022-09-22T08:17:19.219Z,3.78
2022-09-22T08:18:14.184Z,3.80
2022-09-22T08:19:03.320Z,3.90
2022-09-22T08:19:43.293Z,3.91
2022-09-22T08:20:24.169Z,3.56
2022-09-22T08:21:04.464Z,4.01
2022-09-22T08:21:54.440Z,3.44
2022-09-22T08:22:35.238Z,3.15
2022-09-22T08:23:17.212Z,4.31
2022-09-22T08:23:58.162Z,4.60
2022-09-22T08:24:38.189Z,4.31
2022-09-22T08:25:18.269Z,3.78
2022-09-22T08:25:58.201Z,3.94
2022-09-22T08:26:38.294Z,2.83
2022-09-22T08:27:19.170Z,4.03
2022-09-22T08:28:00.232Z,3.51
2022-09-22T08:28:41.142Z,3.26
2022-09-22T08:29:21.367Z,3.60
2022-09-22T08:30:01.177Z,3.04
2022-09-22T08:30:41.249Z,3.97
2022-09-22T08:31:26.246Z,4.66
2022-09-22T08:32:06.370Z,3.08
2022-09-22T08:32:48.174Z,3.42
2022-09-22T08:33:28.224Z,3.20
2022-09-22T08:34:08.160Z,2.78
2022-09-22T08:34:49.284Z,2.70
2022-09-22T08:35:29.206Z,3.13
2022-09-22T08:36:09.419Z,2.56
2022-09-22T08:36:53.154Z,2.58
2022-09-22T08:37:34.325Z,3.14
2022-09-22T08:38:14.165Z,3.56
2022-09-22T08:38:56.160Z,3.80
2022-09-22T08:39:37.146Z,2.19
2022-09-22T08:40:25.282Z,2.32
2022-09-22T08:41:11.193Z,2.71
2022-09-22T08:42:28.646Z,3.01
2022-09-22T08:43:13.847Z,2.40
2022-09-22T08:43:57.561Z,2.45
2022-09-22T08:44:59.170Z,2.66
2022-09-22T08:45:44.343Z,2.47
2022-09-22T08:46:28.203Z,2.92
2022-09-22T08:47:08.219Z,2.72
2022-09-22T08:48:18.195Z,1.79
2022-09-22T08:49:20.795Z,1.58
2022-09-22T08:50:20.150Z,1.70
2022-09-22T08:51:23.797Z,1.39
2022-09-22T08:52:10.174Z,1.88
2022-09-22T08:52:57.214Z,2.10
2022-09-22T08:53:41.113Z,2.19
2022-09-22T08:54:21.342Z,2.29
2022-09-22T08:55:07.142Z,2.09
2022-09-22T08:55:48.442Z,1.30
2022-09-22T08:56:37.129Z,1.81
2022-09-22T08:57:29.265Z,2.19
2022-09-22T08:58:52.170Z,2.85
2022-09-22T09:00:07.151Z,3.04
2022-09-22T09:01:10.127Z,2.83
2022-09-22T09:02:36.228Z,2.50
2022-09-22T09:04:02.170Z,3.46
2022-09-22T09:04:58.131Z,1.86
2022-09-22T09:06:22.166Z,1.49
2022-09-22T09:07:25.177Z,1.30
2022-09-22T09:08:27.196Z,1.61
2022-09-22T09:09:14.193Z,2.00
2022-09-22T09:10:22.151Z,1.29
2022-09-22T09:11:03.238Z,1.13
2022-09-22T09:12:06.121Z,1.15
2022-09-22T09:13:05.181Z,1.34
2022-09-22T09:14:02.142Z,1.74
2022-09-22T09:15:30.211Z,1.21
2022-09-22T09:16:47.109Z,0.99
2022-09-22T09:17:37.250Z,1.41
2022-09-22T09:18:24.102Z,1.77
2022-09-22T09:19:31.240Z,2.34
2022-09-22T09:20:52.119Z,2.30
2022-09-22T09:21:47.103Z,1.08
2022-09-22T09:22:48.453Z,1.90
2022-09-22T09:26:03.184Z,2.39
2022-09-22T09:26:43.109Z,3.11
2022-09-22T09:27:28.836Z,1.26
2022-09-22T09:28:34.101Z,1.65
2022-09-22T09:29:20.221Z,1.66
2022-09-22T09:30:11.156Z,1.80
2022-09-22T09:31:08.157Z,2.25
2022-09-22T09:31:53.126Z,1.97
2022-09-22T09:32:40.191Z,1.21
2022-09-22T09:33:42.143Z,1.83
2022-09-22T09:34:25.405Z,2.90
2022-09-22T09:35:06.159Z,4.64
2022-09-22T09:35:51.231Z,5.65
2022-09-22T09:36:29.586Z,3.19
2022-09-22T09:37:20.216Z,2.00
2022-09-22T09:37:55.396Z,1.73
2022-09-22T09:38:47.093Z,1.69
2022-09-22T09:39:33.285Z,2.26
2022-09-22T09:40:25.197Z,1.16
2022-09-22T09:41:13.111Z,1.30
2022-09-22T09:42:07.132Z,1.23
2022-09-22T09:43:11.099Z,1.30
2022-09-22T09:44:06.106Z,1.49
2022-09-22T09:45:01.114Z,1.69
2022-09-22T09:46:04.178Z,0.95
2022-09-22T09:46:47.188Z,1.49
2022-09-22T09:47:47.612Z,1.75
2022-09-22T09:48:41.203Z,1.73
2022-09-22T09:49:27.169Z,1.19
2022-09-22T09:50:08.118Z,1.23
2022-09-22T09:50:49.378Z,1.91
2022-09-22T09:51:30.083Z,1.17
2022-09-22T09:52:17.135Z,1.66
2022-09-22T09:52:53.171Z,2.01
2022-09-22T09:53:52.595Z,2.16
2022-09-22T09:54:29.760Z,2.34
2022-09-22T09:55:28.114Z,1.13
2022-09-22T09:56:02.158Z,0.88
2022-09-22T09:57:16.125Z,1.11
2022-09-22T09:58:41.154Z,1.35
2022-09-22T09:59:59.186Z,2.03
2022-09-22T10:01:14.197Z,1.94
2022-09-22T10:02:08.106Z,1.08
2022-09-22T10:02:57.124Z,1.31
2022-09-22T10:03:40.154Z,1.75
2022-09-22T10:04:41.194Z,2.42